createdAt,value
2023-03-05T00:01:47.567Z,100672.84
2023-03-05T00:04:15.422Z,100679.03
2023-03-05T00:06:42.002Z,100681.59
2023-03-05T00:09:08.438Z,100672.75
2023-03-05T00:11:34.905Z,100670.13
2023-03-05T00:14:04.032Z,100669.19
2023-03-05T00:16:31.513Z,100670.06
2023-03-05T00:18:59.681Z,100671.81
2023-03-05T00:21:27.570Z,100670.09
2023-03-05T00:23:55.335Z,100666.59
2023-03-05T00:26:25.380Z,100664.91
2023-03-05T00:28:52.714Z,100663.13
2023-03-05T00:31:25.136Z,100658.69
2023-03-05T00:33:56.302Z,100660.44
2023-03-05T00:36:24.365Z,100655.19
2023-03-05T00:38:50.962Z,100649.00
2023-03-05T00:41:17.489Z,100640.25
2023-03-05T00:43:45.190Z,100647.25
2023-03-05T00:46:11.933Z,100648.19
2023-03-05T00:48:38.331Z,100650.81
2023-03-05T00:51:05.024Z,100639.44
2023-03-05T00:53:31.768Z,100639.44
2023-03-05T00:55:59.190Z,100645.59
2023-03-05T00:58:25.858Z,100647.34
2023-03-05T01:00:52.313Z,100638.63
2023-03-05T01:03:19.461Z,100642.13
2023-03-05T01:05:46.053Z,100630.72
2023-03-05T01:08:12.583Z,100635.13
2023-03-05T01:10:39.060Z,100629.78
2023-03-05T01:13:05.494Z,100632.47
2023-03-05T01:15:31.887Z,100628.00
2023-03-05T01:17:58.322Z,100623.66
2023-03-05T01:20:24.757Z,100613.13
2023-03-05T01:22:51.286Z,100614.00
2023-03-05T01:25:18.377Z,100613.09
2023-03-05T01:27:45.048Z,100613.97
2023-03-05T01:30:14.056Z,100607.78
2023-03-05T01:32:40.518Z,100607.84
2023-03-05T01:35:07.877Z,100607.84
2023-03-05T01:37:34.534Z,100611.38
2023-03-05T01:40:00.905Z,100611.38
2023-03-05T01:42:27.405Z,100608.72
2023-03-05T01:45:20.173Z,100611.28
2023-03-05T01:47:46.625Z,100601.66
2023-03-05T01:50:18.231Z,100601.72
2023-03-05T01:52:52.927Z,100597.22
2023-03-05T01:55:25.816Z,100604.34
2023-03-05T01:58:04.842Z,100589.44
2023-03-05T02:00:35.480Z,100584.13
2023-03-05T02:03:07.088Z,100578.00
2023-03-05T02:05:36.139Z,100573.59
2023-03-05T02:08:05.965Z,100578.81
2023-03-05T02:10:39.019Z,100574.44
2023-03-05T02:13:09.785Z,100568.28
2023-03-05T02:15:37.853Z,100571.81
2023-03-05T02:18:04.904Z,100567.41
2023-03-05T02:20:53.836Z,100555.97
2023-03-05T02:23:22.287Z,100557.75
2023-03-05T02:25:48.922Z,100547.22
2023-03-05T02:28:22.957Z,100548.06
2023-03-05T02:30:49.421Z,100545.41
2023-03-05T02:33:17.259Z,100541.94
2023-03-05T02:35:44.397Z,100547.25
2023-03-05T02:38:11.467Z,100550.72
2023-03-05T02:40:37.854Z,100550.72
2023-03-05T02:43:04.752Z,100555.13
2023-03-05T02:45:31.218Z,100552.44
2023-03-05T02:47:57.623Z,100546.38
2023-03-05T02:50:26.071Z,100553.34
2023-03-05T02:52:53.383Z,100549.00
2023-03-05T02:55:20.035Z,100545.41
2023-03-05T02:57:46.430Z,100537.56
2023-03-05T03:00:13.409Z,100536.69
2023-03-05T03:02:39.829Z,100533.19
2023-03-05T03:05:06.671Z,100531.44
2023-03-05T03:07:34.398Z,100529.69
2023-03-05T03:10:00.735Z,100536.75
2023-03-05T03:12:27.242Z,100520.97
2023-03-05T03:14:53.632Z,100526.25
2023-03-05T03:17:20.086Z,100523.63
2023-03-05T03:19:46.947Z,100520.13
2023-03-05T03:22:15.184Z,100517.47
2023-03-05T03:24:42.745Z,100508.69
2023-03-05T03:27:09.607Z,100508.69
2023-03-05T03:29:36.934Z,100512.22
2023-03-05T03:32:04.664Z,100506.09
2023-03-05T03:34:31.171Z,100509.59
2023-03-05T03:36:57.594Z,100502.59
2023-03-05T03:39:25.419Z,100507.88
2023-03-05T03:41:53.434Z,100506.13
2023-03-05T03:44:21.097Z,100499.09
2023-03-05T03:46:48.515Z,100499.06
2023-03-05T03:49:20.815Z,100499.09
2023-03-05T03:51:48.847Z,100502.59
2023-03-05T03:54:16.115Z,100499.06
2023-03-05T03:56:42.811Z,100498.19
2023-03-05T03:59:09.581Z,100491.19
2023-03-05T04:01:36.518Z,100490.31
2023-03-05T04:04:04.117Z,100492.94
2023-03-05T04:06:31.607Z,100492.94
2023-03-05T04:08:58.156Z,100489.44
2023-03-05T04:11:24.994Z,100490.31
2023-03-05T04:13:51.416Z,100487.66
2023-03-05T04:16:17.958Z,100491.19
2023-03-05T04:18:44.373Z,100486.81
2023-03-05T04:21:11.607Z,100487.69
2023-03-05T04:23:38.300Z,100488.53
2023-03-05T04:26:05.455Z,100489.38
2023-03-05T04:28:32.499Z,100483.25
2023-03-05T04:30:58.924Z,100487.66
2023-03-05T04:33:25.338Z,100482.34
2023-03-05T04:35:52.331Z,100488.47
2023-03-05T04:38:19.108Z,100482.31
2023-03-05T04:40:46.663Z,100482.31
2023-03-05T04:43:13.084Z,100481.44
2023-03-05T04:45:40.541Z,100480.66
2023-03-05T04:48:07.192Z,100478.06
2023-03-05T04:50:33.807Z,100480.63
2023-03-05T04:53:00.672Z,100482.25
2023-03-05T04:55:27.192Z,100469.22
2023-03-05T04:57:53.698Z,100475.38
2023-03-05T05:00:20.478Z,100472.66
2023-03-05T05:02:49.872Z,100469.19
2023-03-05T05:05:19.196Z,100474.47
2023-03-05T05:07:45.561Z,100477.97
2023-03-05T05:10:13.112Z,100466.53
2023-03-05T05:12:39.696Z,100472.59
2023-03-05T05:15:07.576Z,100467.41
2023-03-05T05:17:34.625Z,100472.69
2023-03-05T05:20:01.573Z,100459.53
2023-03-05T05:22:29.165Z,100457.78
2023-03-05T05:24:56.564Z,100458.69
2023-03-05T05:27:23.290Z,100456.91
2023-03-05T05:29:52.948Z,100459.63
2023-03-05T05:32:21.254Z,100453.44
2023-03-05T05:34:48.569Z,100447.28
2023-03-05T05:37:15.228Z,100452.56
2023-03-05T05:39:41.623Z,100449.94
2023-03-05T05:42:08.187Z,100447.28
2023-03-05T05:44:34.933Z,100447.31
2023-03-05T05:47:01.794Z,100452.50
2023-03-05T05:49:28.235Z,100442.84
2023-03-05T05:51:54.705Z,100448.19
2023-03-05T05:54:21.093Z,100452.53
2023-03-05T05:56:47.486Z,100455.09
2023-03-05T05:59:13.858Z,100449.00
2023-03-05T06:01:40.413Z,100446.38
2023-03-05T06:04:06.967Z,100445.50
2023-03-05T06:06:34.861Z,100450.81
2023-03-05T06:09:01.307Z,100449.00
2023-03-05T06:11:27.818Z,100444.63
2023-03-05T06:13:54.711Z,100449.03
2023-03-05T06:16:24.296Z,100442.91
2023-03-05T06:18:52.221Z,100447.31
2023-03-05T06:21:21.524Z,100449.94
2023-03-05T06:23:48.863Z,100449.06
2023-03-05T06:26:19.439Z,100442.88
2023-03-05T06:28:46.154Z,100449.91
2023-03-05T06:31:18.789Z,100446.41
2023-03-05T06:33:45.596Z,100448.16
2023-03-05T06:36:15.290Z,100443.75
2023-03-05T06:38:41.993Z,100445.56
2023-03-05T06:41:14.349Z,100440.22
2023-03-05T06:43:43.113Z,100440.25
2023-03-05T06:46:15.552Z,100439.38
2023-03-05T06:48:43.201Z,100441.97
2023-03-05T06:51:17.327Z,100448.16
2023-03-05T06:53:44.904Z,100445.50
2023-03-05T06:56:13.837Z,100456.94
2023-03-05T06:58:40.987Z,100456.06
2023-03-05T07:01:07.849Z,100452.53
2023-03-05T07:03:35.917Z,100456.91
2023-03-05T07:06:07.760Z,100456.91
2023-03-05T07:08:34.487Z,100456.03
2023-03-05T07:11:01.486Z,100445.50
2023-03-05T07:13:29.070Z,100445.50
2023-03-05T07:15:55.725Z,100446.41
2023-03-05T07:18:22.292Z,100450.81
2023-03-05T07:20:48.697Z,100450.75
2023-03-05T07:23:15.086Z,100454.22
2023-03-05T07:25:41.410Z,100448.09
2023-03-05T07:28:07.962Z,100447.19
2023-03-05T07:30:34.635Z,100441.03
2023-03-05T07:33:02.069Z,100448.03
2023-03-05T07:35:28.479Z,100445.34
2023-03-05T07:37:55.789Z,100437.41
2023-03-05T07:40:22.434Z,100436.50
2023-03-05T07:42:48.839Z,100432.97
2023-03-05T07:45:15.208Z,100432.97
2023-03-05T07:47:41.577Z,100439.94
2023-03-05T07:50:08.744Z,100437.25
2023-03-05T07:52:35.171Z,100436.38
2023-03-05T07:55:01.588Z,100441.59
2023-03-05T07:57:28.037Z,100442.47
2023-03-05T07:59:54.734Z,100438.06
2023-03-05T08:02:21.635Z,100434.53
2023-03-05T08:04:48.094Z,100438.00
2023-03-05T08:07:16.076Z,100436.31
2023-03-05T08:09:42.884Z,100431.75
2023-03-05T08:12:10.328Z,100433.69
2023-03-05T08:14:37.005Z,100429.22
2023-03-05T08:17:05.094Z,100422.84
2023-03-05T08:19:32.496Z,100424.53
2023-03-05T08:21:58.919Z,100422.84
2023-03-05T08:24:29.489Z,100412.31
2023-03-05T08:26:57.444Z,100412.28
2023-03-05T08:29:24.503Z,100405.22
2023-03-05T08:31:53.473Z,100406.88
2023-03-05T08:34:21.045Z,100407.88
2023-03-05T08:36:48.024Z,100411.41
2023-03-05T08:39:14.917Z,100400.91
2023-03-05T08:41:41.350Z,100410.50
2023-03-05T08:44:07.825Z,100402.56
2023-03-05T08:46:34.874Z,100398.94
2023-03-05T08:49:01.336Z,100400.38
2023-03-05T08:51:27.835Z,100395.34
2023-03-05T08:53:56.101Z,100395.41
2023-03-05T08:56:22.541Z,100401.63
2023-03-05T08:58:49.317Z,100400.53
2023-03-05T09:01:15.820Z,100398.78
2023-03-05T09:03:42.349Z,100392.53
2023-03-05T09:06:10.443Z,100393.44
2023-03-05T09:08:36.913Z,100391.38
2023-03-05T09:11:06.066Z,100396.88
2023-03-05T09:13:33.341Z,100393.09
2023-03-05T09:16:04.976Z,100392.16
2023-03-05T09:18:31.503Z,100390.31
2023-03-05T09:20:58.700Z,100385.75
2023-03-05T09:23:25.126Z,100383.34
2023-03-05T09:25:51.647Z,100384.97
2023-03-05T09:28:18.114Z,100384.00
2023-03-05T09:30:44.533Z,100374.41
2023-03-05T09:33:11.171Z,100376.56
2023-03-05T09:35:37.671Z,100369.41
2023-03-05T09:38:04.742Z,100369.28
2023-03-05T09:40:45.944Z,100367.03
2023-03-05T09:43:29.973Z,100369.38
2023-03-05T09:46:13.706Z,100364.88
2023-03-05T09:48:58.467Z,100367.81
2023-03-05T09:51:30.899Z,100371.09
2023-03-05T09:54:12.157Z,100364.72
2023-03-05T09:56:45.171Z,100366.34
2023-03-05T09:59:25.879Z,100364.78
2023-03-05T10:01:53.552Z,100359.63
2023-03-05T10:04:44.032Z,100364.72
2023-03-05T10:07:25.711Z,100353.25
2023-03-05T10:09:59.550Z,100356.28
2023-03-05T10:12:48.510Z,100353.63
2023-03-05T10:15:16.512Z,100352.84
2023-03-05T10:18:10.402Z,100345.56
2023-03-05T10:20:59.325Z,100338.19
2023-03-05T10:23:29.456Z,100341.06
2023-03-05T10:26:20.192Z,100333.81
2023-03-05T10:29:03.354Z,100336.81
2023-03-05T10:31:29.699Z,100335.06
2023-03-05T10:34:21.201Z,100333.75
2023-03-05T10:37:06.435Z,100334.06
2023-03-05T10:39:57.507Z,100329.88
2023-03-05T10:42:32.803Z,100336.97
2023-03-05T10:45:01.323Z,100338.94
2023-03-05T10:47:55.452Z,100331.88
2023-03-05T10:50:33.414Z,100331.53
2023-03-05T10:53:27.725Z,100342.22
2023-03-05T10:55:56.520Z,100331.59
2023-03-05T10:58:24.845Z,100325.53
2023-03-05T11:01:09.955Z,100323.59
2023-03-05T11:03:53.967Z,100329.91
2023-03-05T11:06:35.000Z,100324.63
2023-03-05T11:09:19.930Z,100322.13
2023-03-05T11:12:12.438Z,100318.63
2023-03-05T11:14:42.347Z,100315.06
2023-03-05T11:17:27.498Z,100311.69
2023-03-05T11:19:55.186Z,100314.28
2023-03-05T11:22:24.021Z,100309.84
2023-03-05T11:25:18.922Z,100307.19
2023-03-05T11:27:55.635Z,100300.09
2023-03-05T11:30:28.879Z,100300.16
2023-03-05T11:33:14.300Z,100299.19
2023-03-05T11:35:43.686Z,100284.91
2023-03-05T11:38:24.479Z,100281.69
2023-03-05T11:40:53.409Z,100281.72
2023-03-05T11:43:23.418Z,100279.09
2023-03-05T11:45:53.811Z,100283.41
2023-03-05T11:48:28.583Z,100279.66
2023-03-05T11:50:59.017Z,100269.25
2023-03-05T11:53:29.425Z,100272.75
2023-03-05T11:56:11.562Z,100269.81
2023-03-05T11:58:46.450Z,100259.97
2023-03-05T12:01:17.886Z,100248.56
2023-03-05T12:03:44.846Z,100248.38
2023-03-05T12:06:17.675Z,100244.00
2023-03-05T12:08:52.275Z,100238.75
2023-03-05T12:11:28.211Z,100237.06
2023-03-05T12:13:58.999Z,100233.16
2023-03-05T12:16:32.941Z,100232.19
2023-03-05T12:19:30.605Z,100231.34
2023-03-05T12:21:57.789Z,100219.69
2023-03-05T12:24:26.693Z,100218.00
2023-03-05T12:27:06.815Z,100211.88
2023-03-05T12:29:33.220Z,100206.53
2023-03-05T12:32:01.077Z,100204.19
2023-03-05T12:34:40.391Z,100203.28
2023-03-05T12:37:34.038Z,100196.22
2023-03-05T12:40:08.523Z,100182.81
2023-03-05T12:42:35.458Z,100175.13
2023-03-05T12:45:15.745Z,100164.44
2023-03-05T12:47:43.849Z,100167.75
2023-03-05T12:50:28.337Z,100155.34
2023-03-05T12:53:06.917Z,100160.84
2023-03-05T12:55:48.294Z,100151.88
2023-03-05T12:58:24.441Z,100148.94
2023-03-05T13:01:02.825Z,100143.75
2023-03-05T13:03:33.977Z,100140.22
2023-03-05T13:06:00.902Z,100131.22
2023-03-05T13:08:32.435Z,100132.75
2023-03-05T13:11:16.677Z,100131.63
2023-03-05T13:13:44.565Z,100128.66
2023-03-05T13:16:26.464Z,100121.66
2023-03-05T13:18:54.310Z,100119.88
2023-03-05T13:21:29.619Z,100120.69
2023-03-05T13:24:01.260Z,100122.72
2023-03-05T13:26:28.486Z,100116.91
2023-03-05T13:29:03.810Z,100107.38
2023-03-05T13:31:30.737Z,100110.81
2023-03-05T13:34:11.417Z,100112.53
2023-03-05T13:36:39.606Z,100111.72
2023-03-05T13:39:07.453Z,100101.72
2023-03-05T13:41:33.805Z,100098.34
2023-03-05T13:44:02.492Z,100085.88
2023-03-05T13:46:40.273Z,100085.38
2023-03-05T13:49:23.567Z,100084.84
2023-03-05T13:51:55.638Z,100081.25
2023-03-05T13:54:24.900Z,100075.41
2023-03-05T13:57:05.430Z,100067.53
2023-03-05T13:59:34.413Z,100066.84
2023-03-05T14:02:14.904Z,100076.97
2023-03-05T14:04:43.750Z,100064.28
2023-03-05T14:07:26.748Z,100065.44
2023-03-05T14:09:53.578Z,100057.63
2023-03-05T14:12:22.691Z,100048.84
2023-03-05T14:14:49.314Z,100043.63
2023-03-05T14:17:27.546Z,100051.81
2023-03-05T14:20:29.937Z,100040.53
2023-03-05T14:22:58.898Z,100040.66
2023-03-05T14:25:51.763Z,100039.34
2023-03-05T14:28:18.117Z,100027.03
2023-03-05T14:30:50.413Z,100020.09
2023-03-05T14:33:43.810Z,100017.53
2023-03-05T14:36:11.299Z,100014.47
2023-03-05T14:38:42.806Z,100001.38
2023-03-05T14:41:20.665Z,99990.25
2023-03-05T14:43:47.090Z,99991.16
2023-03-05T14:46:13.787Z,99983.22
2023-03-05T14:48:40.221Z,99981.47
2023-03-05T14:51:07.666Z,99984.59
2023-03-05T14:53:47.429Z,99981.34
2023-03-05T14:56:22.195Z,99975.22
2023-03-05T14:58:48.646Z,99975.03
2023-03-05T15:01:15.162Z,99974.34
2023-03-05T15:03:41.710Z,99974.66
2023-03-05T15:06:18.782Z,99969.19
2023-03-05T15:08:45.437Z,99969.19
2023-03-05T15:11:12.043Z,99968.59
2023-03-05T15:13:38.561Z,99957.94
2023-03-05T15:16:06.781Z,99958.97
2023-03-05T15:18:33.246Z,99957.69
2023-03-05T15:20:59.675Z,99956.97
2023-03-05T15:23:26.382Z,99948.47
2023-03-05T15:25:52.801Z,99943.25
2023-03-05T15:28:19.251Z,99941.94
2023-03-05T15:30:47.203Z,99937.84
2023-03-05T15:33:16.870Z,99934.75
2023-03-05T15:35:43.874Z,99937.69
2023-03-05T15:38:10.408Z,99929.47
2023-03-05T15:40:37.009Z,99925.63
2023-03-05T15:43:03.485Z,99926.75
2023-03-05T15:45:31.311Z,99923.31
2023-03-05T15:47:57.998Z,99918.78
2023-03-05T15:50:24.388Z,99911.97
2023-03-05T15:52:50.875Z,99918.78
2023-03-05T15:55:18.430Z,99913.69
2023-03-05T15:57:50.549Z,99914.56
2023-03-05T16:00:21.446Z,99898.72
2023-03-05T16:02:49.010Z,99903.09
2023-03-05T16:05:15.590Z,99900.34
2023-03-05T16:07:44.168Z,99895.31
2023-03-05T16:10:17.263Z,99896.38
2023-03-05T16:12:46.810Z,99888.78
2023-03-05T16:15:20.938Z,99885.03
2023-03-05T16:17:52.293Z,99885.88
2023-03-05T16:20:19.546Z,99889.91
2023-03-05T16:22:46.461Z,99890.03
2023-03-05T16:25:13.030Z,99881.06
2023-03-05T16:27:39.450Z,99888.97
2023-03-05T16:30:07.018Z,99880.31
2023-03-05T16:32:33.627Z,99885.84
2023-03-05T16:35:00.047Z,99883.72
2023-03-05T16:37:26.544Z,99883.56
2023-03-05T16:39:52.943Z,99881.56
2023-03-05T16:42:19.388Z,99879.81
2023-03-05T16:44:47.350Z,99874.84
2023-03-05T16:47:13.846Z,99878.47
2023-03-05T16:49:40.887Z,99870.72
2023-03-05T16:52:18.257Z,99881.38
2023-03-05T16:54:45.389Z,99873.44
2023-03-05T16:57:11.861Z,99870.72
2023-03-05T16:59:38.259Z,99878.50
2023-03-05T17:02:05.124Z,99874.88
2023-03-05T17:04:31.555Z,99869.91
2023-03-05T17:06:57.942Z,99875.06
2023-03-05T17:09:24.596Z,99871.56
2023-03-05T17:11:52.182Z,99865.59
2023-03-05T17:14:18.755Z,99863.00
2023-03-05T17:16:45.390Z,99856.00
2023-03-05T17:19:12.160Z,99854.06
2023-03-05T17:21:41.993Z,99856.00
2023-03-05T17:24:09.902Z,99854.28
2023-03-05T17:26:37.064Z,99850.06
2023-03-05T17:29:07.290Z,99856.47
2023-03-05T17:31:33.868Z,99846.91
2023-03-05T17:34:00.436Z,99847.00
2023-03-05T17:36:26.884Z,99844.53
2023-03-05T17:38:53.911Z,99847.31
2023-03-05T17:41:21.022Z,99841.13
2023-03-05T17:43:47.549Z,99840.13
2023-03-05T17:46:14.630Z,99842.16
2023-03-05T17:48:41.659Z,99839.50
2023-03-05T17:51:11.401Z,99843.94
2023-03-05T17:53:39.321Z,99844.88
2023-03-05T17:56:08.138Z,99838.72
2023-03-05T17:58:34.637Z,99837.47
2023-03-05T18:01:01.241Z,99836.13
2023-03-05T18:03:27.736Z,99836.13
2023-03-05T18:05:54.258Z,99839.81
2023-03-05T18:08:20.669Z,99837.28
2023-03-05T18:10:47.034Z,99845.88
2023-03-05T18:13:13.486Z,99834.53
2023-03-05T18:15:47.264Z,99834.47
2023-03-05T18:18:15.364Z,99828.38
2023-03-05T18:20:41.800Z,99831.13
2023-03-05T18:23:08.273Z,99832.88
2023-03-05T18:25:34.817Z,99829.19
2023-03-05T18:28:03.784Z,99832.19
2023-03-05T18:30:31.385Z,99827.69
2023-03-05T18:32:58.353Z,99837.47
2023-03-05T18:35:24.851Z,99831.41
2023-03-05T18:37:51.817Z,99835.66
2023-03-05T18:40:21.712Z,99824.38
2023-03-05T18:42:48.612Z,99822.59
2023-03-05T18:45:17.560Z,99824.19
2023-03-05T18:47:48.966Z,99821.72
2023-03-05T18:50:18.425Z,99818.25
2023-03-05T18:52:45.298Z,99816.69
2023-03-05T18:55:19.166Z,99816.50
2023-03-05T18:57:46.041Z,99818.16
2023-03-05T19:00:15.432Z,99813.13
2023-03-05T19:02:41.844Z,99817.38
2023-03-05T19:05:08.756Z,99819.16
2023-03-05T19:07:35.348Z,99808.00
2023-03-05T19:10:07.356Z,99816.06
2023-03-05T19:12:45.405Z,99805.38
2023-03-05T19:15:13.132Z,99803.78
2023-03-05T19:17:40.046Z,99801.34
2023-03-05T19:20:08.041Z,99802.06
2023-03-05T19:22:34.628Z,99795.13
2023-03-05T19:25:01.673Z,99797.91
2023-03-05T19:27:28.571Z,99801.47
2023-03-05T19:29:55.178Z,99796.16
2023-03-05T19:32:22.022Z,99790.81
2023-03-05T19:34:48.906Z,99794.00
2023-03-05T19:37:16.238Z,99787.41
2023-03-05T19:39:42.650Z,99784.69
2023-03-05T19:42:09.550Z,99781.34
2023-03-05T19:44:36.063Z,99781.13
2023-03-05T19:47:02.620Z,99779.41
2023-03-05T19:49:29.611Z,99780.38
2023-03-05T19:51:56.047Z,99767.28
2023-03-05T19:54:23.214Z,99771.63
2023-03-05T19:56:52.904Z,99771.63
2023-03-05T19:59:21.134Z,99767.25
2023-03-05T20:01:48.874Z,99761.25
2023-03-05T20:04:18.644Z,99762.03
2023-03-05T20:06:45.535Z,99769.03
2023-03-05T20:09:12.665Z,99758.72
2023-03-05T20:11:39.789Z,99764.88
2023-03-05T20:14:06.885Z,99762.94
2023-03-05T20:16:36.208Z,99761.22
2023-03-05T20:19:03.440Z,99756.78
2023-03-05T20:21:39.103Z,99754.34
2023-03-05T20:24:09.796Z,99747.19
2023-03-05T20:26:37.966Z,99758.34
2023-03-05T20:29:05.011Z,99749.84
2023-03-05T20:31:33.817Z,99748.97
2023-03-05T20:34:00.287Z,99748.25
2023-03-05T20:36:26.803Z,99757.88
2023-03-05T20:38:53.220Z,99749.03
2023-03-05T20:41:23.220Z,99747.41
2023-03-05T20:43:51.151Z,99741.50
2023-03-05T20:46:23.396Z,99737.78
2023-03-05T20:48:51.939Z,99739.72
2023-03-05T20:51:24.400Z,99737.94
2023-03-05T20:53:54.119Z,99727.63
2023-03-05T20:56:20.595Z,99725.81
2023-03-05T20:58:47.018Z,99730.31
2023-03-05T21:01:13.679Z,99726.81
2023-03-05T21:03:40.906Z,99723.31
2023-03-05T21:06:07.985Z,99726.91
2023-03-05T21:08:34.473Z,99720.06
2023-03-05T21:11:05.294Z,99722.44
2023-03-05T21:13:31.691Z,99719.00
2023-03-05T21:15:58.073Z,99720.69
2023-03-05T21:18:24.550Z,99718.16
2023-03-05T21:20:50.968Z,99710.41
2023-03-05T21:23:17.480Z,99706.63
2023-03-05T21:25:43.864Z,99705.59
2023-03-05T21:28:16.425Z,99700.66
2023-03-05T21:30:45.422Z,99701.44
2023-03-05T21:33:15.196Z,99708.34
2023-03-05T21:35:41.996Z,99702.09
2023-03-05T21:38:09.571Z,99698.56
2023-03-05T21:40:39.918Z,99695.22
2023-03-05T21:43:06.282Z,99696.47
2023-03-05T21:45:32.832Z,99682.41
2023-03-05T21:47:59.735Z,99677.31
2023-03-05T21:50:26.445Z,99673.81
2023-03-05T21:52:53.178Z,99671.84
2023-03-05T21:55:32.287Z,99674.41
2023-03-05T21:58:02.487Z,99660.56
2023-03-05T22:00:29.143Z,99665.13
2023-03-05T22:02:55.505Z,99660.56
2023-03-05T22:05:22.058Z,99657.84
2023-03-05T22:07:48.501Z,99644.03
2023-03-05T22:10:17.589Z,99645.00
2023-03-05T22:13:11.581Z,99643.88
2023-03-05T22:15:52.605Z,99638.56
2023-03-05T22:18:21.576Z,99633.38
2023-03-05T22:20:48.187Z,99622.66
2023-03-05T22:23:16.066Z,99625.41
2023-03-05T22:25:43.244Z,99620.94
2023-03-05T22:28:13.131Z,99620.00
2023-03-05T22:30:44.265Z,99611.34
2023-03-05T22:33:11.155Z,99615.63
2023-03-05T22:35:40.207Z,99605.78
2023-03-05T22:38:07.878Z,99608.41
2023-03-05T22:40:34.603Z,99597.88
2023-03-05T22:43:00.958Z,99601.47
2023-03-05T22:45:28.568Z,99600.59
2023-03-05T22:47:54.972Z,99594.34
2023-03-05T22:50:21.433Z,99590.78
2023-03-05T22:52:47.877Z,99586.53
2023-03-05T22:55:15.972Z,99583.16
2023-03-05T22:57:43.440Z,99581.41
2023-03-05T23:00:14.365Z,99586.63
2023-03-05T23:02:42.202Z,99576.84
2023-03-05T23:05:10.004Z,99569.94
2023-03-05T23:07:38.582Z,99567.34
2023-03-05T23:10:15.175Z,99571.81
2023-03-05T23:12:46.040Z,99566.53
2023-03-05T23:15:14.680Z,99560.31
2023-03-05T23:17:41.236Z,99555.84
2023-03-05T23:20:10.104Z,99550.91
2023-03-05T23:22:38.336Z,99554.53
2023-03-05T23:25:05.343Z,99553.69
2023-03-05T23:27:31.752Z,99551.94
2023-03-05T23:30:16.572Z,99544.78
2023-03-05T23:32:45.153Z,99555.28
2023-03-05T23:35:13.408Z,99559.81
2023-03-05T23:37:39.955Z,99562.59
2023-03-05T23:40:07.769Z,99555.75
2023-03-05T23:42:34.258Z,99552.44
2023-03-05T23:45:00.624Z,99548.19
2023-03-05T23:47:26.999Z,99543.00
2023-03-05T23:49:53.566Z,99543.88
2023-03-05T23:52:19.960Z,99534.31
2023-03-05T23:54:46.392Z,99541.25
2023-03-05T23:57:12.766Z,99539.44
2023-03-05T23:59:39.291Z,99538.75
